createdAt,value
2016-06-29T00:00:09.524Z,17.79
2016-06-29T00:01:09.502Z,17.72
2016-06-29T00:02:08.887Z,17.67
2016-06-29T00:03:08.858Z,17.71
2016-06-29T00:04:08.842Z,17.74
2016-06-29T00:05:09.410Z,17.67
2016-06-29T00:06:08.197Z,17.64
2016-06-29T00:07:08.783Z,17.67
2016-06-29T00:08:09.357Z,17.65
2016-06-29T00:09:09.379Z,17.65
2016-06-29T00:10:09.318Z,17.7
2016-06-29T00:11:08.710Z,17.67
2016-06-29T00:12:09.284Z,17.7
2016-06-29T00:13:08.662Z,17.71
2016-06-29T00:14:08.649Z,17.68
2016-06-29T00:15:09.219Z,17.7
2016-06-29T00:16:09.197Z,17.7
2016-06-29T00:17:07.985Z,17.67
2016-06-29T00:18:08.569Z,17.7
2016-06-29T00:19:08.543Z,17.64
2016-06-29T00:20:09.153Z,17.68
2016-06-29T00:21:08.506Z,17.63
2016-06-29T00:22:08.487Z,17.57
2016-06-29T00:23:08.462Z,17.6
2016-06-29T00:24:08.451Z,17.6
2016-06-29T00:25:08.427Z,17.59
2016-06-29T00:26:07.813Z,17.64
2016-06-29T00:27:08.989Z,17.57
2016-06-29T00:28:08.370Z,17.54
2016-06-29T00:29:07.745Z,17.54
2016-06-29T00:30:08.336Z,17.54
2016-06-29T00:31:08.915Z,17.52
2016-06-29T00:32:07.696Z,17.41
2016-06-29T00:33:08.884Z,17.44
2016-06-29T00:34:07.668Z,17.36
2016-06-29T00:35:08.234Z,17.33
2016-06-29T00:36:08.204Z,17.26
2016-06-29T00:37:08.198Z,17.29
2016-06-29T00:38:08.769Z,17.27
2016-06-29T00:39:08.151Z,17.29
2016-06-29T00:40:08.146Z,17.29
2016-06-29T00:41:07.540Z,17.29
2016-06-29T00:42:08.685Z,17.27
2016-06-29T00:43:08.686Z,17.29
2016-06-29T00:44:08.055Z,17.27
2016-06-29T00:45:08.639Z,17.33
2016-06-29T00:46:08.035Z,17.3
2016-06-29T00:47:07.993Z,17.33
2016-06-29T00:48:07.986Z,17.33
2016-06-29T00:49:07.963Z,17.33
2016-06-29T00:50:07.949Z,17.33
2016-06-29T00:51:07.329Z,17.31
2016-06-29T00:52:08.506Z,17.31
2016-06-29T00:53:07.877Z,17.34
2016-06-29T00:54:07.863Z,17.34
2016-06-29T00:55:07.837Z,17.31
2016-06-29T00:56:08.434Z,17.26
2016-06-29T00:57:08.434Z,17.31
2016-06-29T00:58:07.782Z,17.27
2016-06-29T00:59:07.158Z,17.39
2016-06-29T01:00:07.772Z,17.34
2016-06-29T01:01:07.723Z,17.36
2016-06-29T01:02:07.711Z,17.39
2016-06-29T01:03:07.717Z,17.39
2016-06-29T01:04:07.066Z,17.33
2016-06-29T01:05:07.646Z,17.39
2016-06-29T01:06:07.627Z,17.39
2016-06-29T01:07:07.005Z,17.36
2016-06-29T01:08:08.183Z,17.39
2016-06-29T01:09:07.554Z,17.39
2016-06-29T01:10:08.163Z,17.44
2016-06-29T01:11:07.524Z,17.41
2016-06-29T01:12:08.147Z,17.44
2016-06-29T01:13:08.086Z,17.42
2016-06-29T01:14:07.466Z,17.46
2016-06-29T01:15:08.051Z,17.48
2016-06-29T01:16:07.418Z,17.42
2016-06-29T01:17:07.407Z,17.51
2016-06-29T01:18:06.813Z,17.44
2016-06-29T01:19:07.371Z,17.48
2016-06-29T01:20:07.362Z,17.52
2016-06-29T01:21:07.329Z,17.45
2016-06-29T01:22:07.329Z,17.51
2016-06-29T01:23:07.887Z,17.52
2016-06-29T01:24:07.266Z,17.51
2016-06-29T01:25:07.257Z,17.56
2016-06-29T01:26:07.287Z,17.52
2016-06-29T01:27:07.201Z,17.52
2016-06-29T01:28:07.222Z,17.57
2016-06-29T01:29:07.790Z,17.49
2016-06-29T01:30:07.159Z,17.57
2016-06-29T01:31:07.723Z,17.59
2016-06-29T01:32:07.114Z,17.57
2016-06-29T01:33:07.696Z,17.57
2016-06-29T01:34:07.066Z,17.57
2016-06-29T01:35:07.664Z,17.6
2016-06-29T01:36:07.036Z,17.57
2016-06-29T01:37:07.613Z,17.52
2016-06-29T01:38:06.400Z,17.59
2016-06-29T01:39:06.971Z,17.6
2016-06-29T01:40:06.370Z,17.6
2016-06-29T01:41:06.338Z,17.57
2016-06-29T01:42:07.518Z,17.59
2016-06-29T01:43:07.525Z,17.6
2016-06-29T01:44:06.874Z,17.65
2016-06-29T01:45:07.457Z,17.6
2016-06-29T01:46:07.441Z,17.57
2016-06-29T01:47:06.834Z,17.57
2016-06-29T01:48:07.394Z,17.56
2016-06-29T01:49:06.780Z,17.54
2016-06-29T01:50:06.778Z,17.54
2016-06-29T01:51:06.743Z,17.51
2016-06-29T01:52:06.718Z,17.56
2016-06-29T01:53:07.304Z,17.51
2016-06-29T01:54:06.695Z,17.56
2016-06-29T01:55:06.654Z,17.45
2016-06-29T01:56:06.647Z,17.52
2016-06-29T01:57:06.734Z,17.49
2016-06-29T01:58:06.594Z,17.48
2016-06-29T01:59:06.093Z,17.52
2016-06-29T02:00:06.571Z,17.48
2016-06-29T02:01:06.546Z,17.45
2016-06-29T02:02:06.521Z,17.51
2016-06-29T02:03:06.491Z,17.44
2016-06-29T02:04:07.086Z,17.48
2016-06-29T02:05:06.476Z,17.46
2016-06-29T02:06:07.024Z,17.44
2016-06-29T02:07:06.410Z,17.34
2016-06-29T02:08:05.854Z,17.42
2016-06-29T02:09:06.388Z,17.44
2016-06-29T02:10:06.366Z,17.45
2016-06-29T02:11:06.349Z,17.36
2016-06-29T02:12:06.338Z,17.45
2016-06-29T02:13:06.898Z,17.45
2016-06-29T02:14:05.713Z,17.33
2016-06-29T02:15:05.663Z,17.41
2016-06-29T02:16:06.251Z,17.41
2016-06-29T02:17:06.257Z,17.38
2016-06-29T02:18:06.192Z,17.29
2016-06-29T02:19:06.201Z,17.27
2016-06-29T02:20:06.763Z,17.31
2016-06-29T02:21:05.539Z,17.23
2016-06-29T02:22:06.145Z,17.2
2016-06-29T02:23:06.700Z,17.23
2016-06-29T02:24:06.718Z,17.19
2016-06-29T02:25:06.069Z,17.22
2016-06-29T02:26:06.039Z,17.22
2016-06-29T02:27:06.674Z,17.14
2016-06-29T02:28:05.407Z,17.14
2016-06-29T02:29:05.383Z,17.08
2016-06-29T02:30:06.559Z,17.11
2016-06-29T02:31:05.945Z,17.09
2016-06-29T02:32:05.929Z,17.08
2016-06-29T02:33:05.303Z,17.09
2016-06-29T02:34:05.900Z,17.05
2016-06-29T02:35:05.268Z,16.96
2016-06-29T02:36:05.854Z,16.97
2016-06-29T02:37:06.436Z,16.99
2016-06-29T02:38:06.392Z,16.99
2016-06-29T02:39:05.182Z,16.93
2016-06-29T02:40:06.392Z,17.02
2016-06-29T02:41:06.387Z,17.04
2016-06-29T02:42:06.325Z,16.97
2016-06-29T02:43:06.311Z,16.96
2016-06-29T02:44:05.690Z,16.97
2016-06-29T02:45:05.061Z,16.97
2016-06-29T02:46:05.642Z,16.99
2016-06-29T02:47:05.020Z,17.01
2016-06-29T02:48:05.598Z,16.89
2016-06-29T02:49:05.579Z,16.83
2016-06-29T02:50:06.169Z,16.97
2016-06-29T02:51:05.540Z,16.97
2016-06-29T02:52:05.526Z,16.99
2016-06-29T02:53:06.134Z,16.89
2016-06-29T02:54:04.898Z,16.93
2016-06-29T02:55:05.471Z,16.84
2016-06-29T02:56:05.447Z,16.89
2016-06-29T02:57:05.426Z,16.89
2016-06-29T02:58:06.026Z,16.86
2016-06-29T02:59:05.984Z,16.86
2016-06-29T03:00:05.351Z,16.86
2016-06-29T03:01:05.945Z,16.84
2016-06-29T03:02:05.918Z,16.83
2016-06-29T03:03:05.902Z,16.78
2016-06-29T03:04:04.688Z,16.75
2016-06-29T03:05:05.859Z,16.81
2016-06-29T03:06:05.889Z,16.75
2016-06-29T03:07:04.628Z,16.79
2016-06-29T03:08:05.810Z,16.72
2016-06-29T03:09:05.810Z,16.76
2016-06-29T03:10:05.764Z,16.72
2016-06-29T03:11:05.140Z,16.75
2016-06-29T03:12:05.729Z,16.71
2016-06-29T03:13:05.702Z,16.72
2016-06-29T03:14:05.114Z,16.74
2016-06-29T03:15:05.646Z,16.72
2016-06-29T03:16:04.472Z,16.68
2016-06-29T03:17:05.623Z,16.68
2016-06-29T03:18:05.009Z,16.66
2016-06-29T03:19:04.388Z,16.64
2016-06-29T03:20:05.006Z,16.61
2016-06-29T03:21:04.358Z,16.58
2016-06-29T03:22:05.516Z,16.65
2016-06-29T03:23:04.299Z,16.65
2016-06-29T03:24:04.882Z,16.57
2016-06-29T03:25:04.862Z,16.53
2016-06-29T03:26:05.437Z,16.56
2016-06-29T03:27:05.404Z,16.66
2016-06-29T03:28:04.791Z,16.58
2016-06-29T03:29:04.776Z,16.61
2016-06-29T03:30:04.783Z,16.57
2016-06-29T03:31:04.737Z,16.6
2016-06-29T03:32:05.337Z,16.65
2016-06-29T03:33:04.721Z,16.65
2016-06-29T03:34:04.685Z,16.64
2016-06-29T03:35:04.682Z,16.58
2016-06-29T03:36:04.030Z,16.6
2016-06-29T03:37:04.637Z,16.64
2016-06-29T03:38:05.188Z,16.6
2016-06-29T03:39:04.571Z,16.58
2016-06-29T03:40:03.964Z,16.64
2016-06-29T03:41:04.530Z,16.58
2016-06-29T03:42:04.514Z,16.58
2016-06-29T03:43:03.877Z,16.64
2016-06-29T03:44:03.875Z,16.64
2016-06-29T03:45:05.055Z,16.61
2016-06-29T03:46:05.030Z,16.58
2016-06-29T03:47:05.017Z,16.6
2016-06-29T03:48:04.388Z,16.61
2016-06-29T03:49:03.784Z,16.64
2016-06-29T03:50:04.994Z,16.54
2016-06-29T03:51:04.939Z,16.6
2016-06-29T03:52:04.900Z,16.68
2016-06-29T03:53:04.892Z,16.57
2016-06-29T03:54:04.871Z,16.66
2016-06-29T03:55:04.256Z,16.58
2016-06-29T03:56:04.259Z,16.54
2016-06-29T03:57:04.196Z,16.57
2016-06-29T03:58:04.796Z,16.53
2016-06-29T03:59:04.781Z,16.61
2016-06-29T04:00:04.761Z,16.53
2016-06-29T04:01:04.752Z,16.58
2016-06-29T04:02:04.722Z,16.53
2016-06-29T04:03:04.698Z,16.46
2016-06-29T04:04:04.097Z,16.64
2016-06-29T04:05:04.036Z,16.56
2016-06-29T04:06:04.038Z,16.53
2016-06-29T04:07:04.635Z,16.64
2016-06-29T04:08:03.983Z,16.68
2016-06-29T04:09:03.374Z,16.64
2016-06-29T04:10:04.556Z,16.6
2016-06-29T04:11:03.932Z,16.64
2016-06-29T04:12:04.550Z,16.66
2016-06-29T04:13:03.907Z,16.69
2016-06-29T04:14:03.874Z,16.71
2016-06-29T04:15:04.462Z,16.74
2016-06-29T04:16:03.826Z,16.76
2016-06-29T04:17:04.422Z,16.81
2016-06-29T04:18:03.792Z,16.76
2016-06-29T04:19:03.783Z,16.79
2016-06-29T04:20:03.754Z,16.87
2016-06-29T04:21:03.141Z,16.86
2016-06-29T04:22:04.304Z,16.93
2016-06-29T04:23:03.086Z,16.86
2016-06-29T04:24:03.077Z,16.97
2016-06-29T04:25:03.650Z,16.97
2016-06-29T04:26:04.237Z,16.94
2016-06-29T04:27:03.609Z,16.97
2016-06-29T04:28:04.218Z,17.01
2016-06-29T04:29:02.982Z,16.94
2016-06-29T04:30:04.149Z,16.99
2016-06-29T04:31:02.925Z,17.04
2016-06-29T04:32:02.915Z,17.04
2016-06-29T04:33:03.492Z,17.04
2016-06-29T04:34:04.064Z,17.08
2016-06-29T04:35:04.055Z,17.11
2016-06-29T04:36:04.052Z,17.01
2016-06-29T04:37:04.013Z,17.09
2016-06-29T04:38:04.000Z,17.08
2016-06-29T04:39:02.778Z,17.08
2016-06-29T04:40:03.957Z,17.09
2016-06-29T04:41:03.334Z,17.06
2016-06-29T04:42:02.726Z,17.08
2016-06-29T04:43:03.895Z,17.12
2016-06-29T04:44:03.892Z,17.12
2016-06-29T04:45:03.277Z,17.05
2016-06-29T04:46:03.836Z,17.08
2016-06-29T04:47:03.219Z,17.14
2016-06-29T04:48:03.191Z,17.12
2016-06-29T04:49:03.178Z,17.15
2016-06-29T04:50:03.167Z,17.16
2016-06-29T04:51:03.741Z,17.14
2016-06-29T04:52:03.138Z,17.16
2016-06-29T04:53:03.121Z,17.12
2016-06-29T04:54:02.489Z,17.11
2016-06-29T04:55:03.658Z,17.14
2016-06-29T04:56:02.456Z,17.08
2016-06-29T04:57:02.487Z,17.08
2016-06-29T04:58:02.411Z,17.02
2016-06-29T04:59:03.589Z,16.96
2016-06-29T05:00:03.561Z,16.93
2016-06-29T05:01:02.943Z,17.02
2016-06-29T05:02:02.345Z,16.94
2016-06-29T05:03:02.301Z,16.93
2016-06-29T05:04:02.317Z,16.97
2016-06-29T05:05:03.484Z,17.02
2016-06-29T05:06:03.456Z,17.01
2016-06-29T05:07:02.877Z,16.93
2016-06-29T05:08:02.818Z,16.96
2016-06-29T05:09:02.211Z,16.93
2016-06-29T05:10:02.772Z,16.99
2016-06-29T05:11:03.358Z,16.86
2016-06-29T05:12:02.753Z,16.96
2016-06-29T05:13:02.749Z,16.86
2016-06-29T05:14:02.723Z,16.97
2016-06-29T05:15:03.285Z,17.02
2016-06-29T05:16:02.063Z,16.99
2016-06-29T05:17:03.238Z,16.93
2016-06-29T05:18:03.214Z,16.97
2016-06-29T05:19:02.604Z,16.93
2016-06-29T05:20:02.574Z,16.97
2016-06-29T05:21:01.966Z,16.99
2016-06-29T05:22:03.143Z,16.97
2016-06-29T05:23:03.122Z,16.9
2016-06-29T05:24:03.116Z,16.96
2016-06-29T05:25:03.077Z,17.02
2016-06-29T05:26:01.871Z,16.96
2016-06-29T05:27:02.448Z,17.01
2016-06-29T05:28:02.423Z,16.97
2016-06-29T05:29:01.821Z,16.99
2016-06-29T05:30:02.390Z,17.08
2016-06-29T05:31:02.525Z,17.14
2016-06-29T05:32:02.347Z,17.12
2016-06-29T05:33:02.937Z,17.24
2016-06-29T05:34:02.313Z,17.33
2016-06-29T05:35:01.712Z,17.41
2016-06-29T05:36:01.675Z,17.41
2016-06-29T05:37:02.252Z,17.45
2016-06-29T05:38:02.242Z,17.45
2016-06-29T05:39:02.852Z,17.42
2016-06-29T05:40:01.607Z,17.44
2016-06-29T05:41:02.403Z,17.44
2016-06-29T05:42:02.793Z,17.42
2016-06-29T05:43:02.750Z,17.39
2016-06-29T05:44:02.133Z,17.45
2016-06-29T05:45:02.142Z,17.48
2016-06-29T05:46:02.098Z,17.52
2016-06-29T05:47:02.675Z,17.68
2016-06-29T05:48:02.648Z,17.71
2016-06-29T05:49:02.045Z,17.7
2016-06-29T05:50:02.072Z,17.72
2016-06-29T05:51:01.999Z,17.59
2016-06-29T05:52:01.997Z,17.65
2016-06-29T05:53:01.970Z,17.52
2016-06-29T05:54:02.548Z,17.48
2016-06-29T05:55:01.935Z,17.41
2016-06-29T05:56:02.514Z,17.44
2016-06-29T05:57:01.390Z,17.33
2016-06-29T05:58:02.479Z,17.38
2016-06-29T05:59:01.877Z,17.38
2016-06-29T06:00:02.465Z,17.3
2016-06-29T06:01:02.420Z,17.15
2016-06-29T06:02:02.411Z,17.16
2016-06-29T06:03:02.422Z,17.2
2016-06-29T06:04:01.179Z,17.12
2016-06-29T06:05:01.749Z,17.12
2016-06-29T06:06:01.726Z,17.09
2016-06-29T06:07:01.121Z,17.06
2016-06-29T06:08:01.703Z,17.01
2016-06-29T06:09:01.683Z,17.06
2016-06-29T06:10:01.059Z,17.08
2016-06-29T06:11:01.049Z,16.99
2016-06-29T06:12:01.635Z,17.02
2016-06-29T06:13:01.610Z,17.02
2016-06-29T06:14:01.603Z,16.96
2016-06-29T06:15:02.163Z,16.93
2016-06-29T06:16:02.153Z,16.93
2016-06-29T06:17:01.536Z,17.01
2016-06-29T06:18:01.516Z,17.06
2016-06-29T06:19:00.926Z,17.11
2016-06-29T06:20:00.980Z,17.06
2016-06-29T06:21:01.152Z,17.09
2016-06-29T06:22:02.046Z,17.09
2016-06-29T06:23:02.050Z,17.12
2016-06-29T06:24:02.028Z,17.15
2016-06-29T06:25:02.026Z,17.04
2016-06-29T06:26:01.992Z,17.19
2016-06-29T06:27:00.748Z,17.16
2016-06-29T06:28:01.344Z,17.2
2016-06-29T06:29:01.318Z,17.15
2016-06-29T06:30:01.298Z,17.29
2016-06-29T06:31:01.887Z,17.39
2016-06-29T06:32:01.847Z,17.38
2016-06-29T06:33:01.250Z,17.48
2016-06-29T06:34:01.830Z,17.42
2016-06-29T06:35:01.197Z,17.46
2016-06-29T06:36:01.187Z,17.54
2016-06-29T06:37:01.786Z,17.51
2016-06-29T06:38:01.160Z,17.57
2016-06-29T06:39:01.159Z,17.72
2016-06-29T06:40:01.724Z,17.68
2016-06-29T06:41:01.104Z,17.78
2016-06-29T06:42:01.686Z,17.83
2016-06-29T06:43:01.100Z,17.89
2016-06-29T06:44:01.679Z,17.92
2016-06-29T06:45:01.634Z,17.92
2016-06-29T06:46:00.434Z,18
2016-06-29T06:47:01.014Z,17.98
2016-06-29T06:48:01.623Z,18
2016-06-29T06:49:01.570Z,17.97
2016-06-29T06:50:00.957Z,18.04
2016-06-29T06:51:00.935Z,18.11
2016-06-29T06:52:01.543Z,18.05
2016-06-29T06:53:00.909Z,18.15
2016-06-29T06:54:01.483Z,18.28
2016-06-29T06:55:00.893Z,18.31
2016-06-29T06:56:00.881Z,18.41
2016-06-29T06:57:00.248Z,18.52
2016-06-29T06:58:00.835Z,18.5
2016-06-29T06:59:01.410Z,18.58
2016-06-29T07:00:00.196Z,18.55
2016-06-29T07:01:00.177Z,18.59
2016-06-29T07:02:00.199Z,18.6
2016-06-29T07:03:00.158Z,18.65
2016-06-29T07:04:01.342Z,18.62
2016-06-29T07:05:00.759Z,18.62
2016-06-29T07:06:00.695Z,18.71
2016-06-29T07:07:01.285Z,18.75
2016-06-29T07:08:00.675Z,18.81
2016-06-29T07:09:01.003Z,18.9
2016-06-29T07:10:00.047Z,19
2016-06-29T07:11:00.658Z,18.92
2016-06-29T07:12:00.616Z,19.02
2016-06-29T07:13:01.195Z,19.04
2016-06-29T07:14:01.173Z,19.14
2016-06-29T07:15:01.180Z,19.12
2016-06-29T07:16:01.161Z,19.07
2016-06-29T07:17:00.571Z,19.08
2016-06-29T07:17:59.924Z,18.99
2016-06-29T07:19:00.500Z,19
2016-06-29T07:20:00.490Z,18.99
2016-06-29T07:21:00.477Z,19
2016-06-29T07:22:01.074Z,18.88
2016-06-29T07:23:00.440Z,18.88
2016-06-29T07:23:59.835Z,18.75
2016-06-29T07:25:00.428Z,18.75
2016-06-29T07:25:59.811Z,18.62
2016-06-29T07:27:00.387Z,18.65
2016-06-29T07:28:00.370Z,18.62
2016-06-29T07:29:00.355Z,18.66
2016-06-29T07:30:00.919Z,18.59
2016-06-29T07:31:00.335Z,18.63
2016-06-29T07:32:00.399Z,18.5
2016-06-29T07:33:00.290Z,18.49
2016-06-29T07:33:59.696Z,18.47
2016-06-29T07:35:00.272Z,18.53
2016-06-29T07:35:59.654Z,18.44
2016-06-29T07:37:00.821Z,18.47
2016-06-29T07:38:00.821Z,18.49
2016-06-29T07:39:00.245Z,18.52
2016-06-29T07:39:59.582Z,18.56
2016-06-29T07:41:00.810Z,18.43
2016-06-29T07:41:59.575Z,18.59
2016-06-29T07:43:00.758Z,18.6
2016-06-29T07:44:00.705Z,18.59
2016-06-29T07:45:00.090Z,18.63
2016-06-29T07:45:59.503Z,18.59
2016-06-29T07:47:00.653Z,18.75
2016-06-29T07:48:00.646Z,18.78
2016-06-29T07:49:00.638Z,18.83
2016-06-29T07:49:59.428Z,18.71
2016-06-29T07:51:00.016Z,18.74
2016-06-29T07:52:00.591Z,18.77
2016-06-29T07:53:00.563Z,18.8
2016-06-29T07:53:59.945Z,18.71
2016-06-29T07:54:59.331Z,18.74
2016-06-29T07:56:00.534Z,18.71
2016-06-29T07:56:59.905Z,18.7
2016-06-29T07:57:59.899Z,18.8
2016-06-29T07:59:00.098Z,18.86
2016-06-29T08:00:00.451Z,18.86
2016-06-29T08:00:59.842Z,18.93
2016-06-29T08:01:59.240Z,18.99
2016-06-29T08:03:00.419Z,19.07
2016-06-29T08:03:59.201Z,19.15
2016-06-29T08:04:59.858Z,19.18
2016-06-29T08:05:59.806Z,19.18
2016-06-29T08:06:59.301Z,19.24
2016-06-29T08:07:59.841Z,19.24
2016-06-29T08:09:00.414Z,19.19
2016-06-29T08:09:59.715Z,19.21
2016-06-29T08:10:59.688Z,19.21
2016-06-29T08:11:59.702Z,19.31
2016-06-29T08:12:59.650Z,19.33
2016-06-29T08:14:00.239Z,19.34
2016-06-29T08:15:00.230Z,19.3
2016-06-29T08:15:59.623Z,19.29
2016-06-29T08:16:59.608Z,19.29
2016-06-29T08:18:00.179Z,19.34
2016-06-29T08:19:00.201Z,19.47
2016-06-29T08:19:59.571Z,19.31
2016-06-29T08:21:00.138Z,19.31
2016-06-29T08:21:58.935Z,19.26
2016-06-29T08:22:59.517Z,19.3
2016-06-29T08:23:59.504Z,19.37
2016-06-29T08:24:59.494Z,19.44
2016-06-29T08:25:59.460Z,19.39
2016-06-29T08:27:00.519Z,19.41
2016-06-29T08:28:00.043Z,19.44
2016-06-29T08:29:00.021Z,19.48
2016-06-29T08:30:00.016Z,19.48
2016-06-29T08:30:59.989Z,19.58
2016-06-29T08:31:59.398Z,19.66
2016-06-29T08:32:59.360Z,19.7
2016-06-29T08:33:59.382Z,19.71
2016-06-29T08:35:00.016Z,19.76
2016-06-29T08:35:59.318Z,19.74
2016-06-29T08:36:59.299Z,19.71
2016-06-29T08:37:58.691Z,19.67
2016-06-29T08:38:59.890Z,19.73
2016-06-29T08:39:58.665Z,19.69
2016-06-29T08:40:59.255Z,19.7
2016-06-29T08:41:59.879Z,19.79
2016-06-29T08:42:59.221Z,19.71
2016-06-29T08:43:59.831Z,19.81
2016-06-29T08:44:59.208Z,19.82
2016-06-29T08:45:59.183Z,20.02
2016-06-29T08:46:59.765Z,20.06
2016-06-29T08:47:59.171Z,20.21
2016-06-29T08:48:58.550Z,20.28
2016-06-29T08:49:59.746Z,20.43
2016-06-29T08:50:59.715Z,20.6
2016-06-29T08:51:59.116Z,20.69
2016-06-29T08:52:59.100Z,20.72
2016-06-29T08:53:59.699Z,20.84
2016-06-29T08:54:59.075Z,20.93
2016-06-29T08:55:58.474Z,20.92
2016-06-29T08:56:58.460Z,20.93
2016-06-29T08:57:59.643Z,20.87
2016-06-29T08:58:59.026Z,20.7
2016-06-29T08:59:58.414Z,20.78
2016-06-29T09:00:59.019Z,20.7
2016-06-29T09:01:59.674Z,20.77
2016-06-29T09:02:59.578Z,20.7
2016-06-29T09:03:58.974Z,20.66
2016-06-29T09:04:59.552Z,20.66
2016-06-29T09:05:59.550Z,20.66
2016-06-29T09:06:59.538Z,20.74
2016-06-29T09:07:59.521Z,20.84
2016-06-29T09:08:58.306Z,20.84
2016-06-29T09:09:59.499Z,20.74
2016-06-29T09:10:59.487Z,20.78
2016-06-29T09:11:59.474Z,20.78
2016-06-29T09:12:58.856Z,20.75
2016-06-29T09:13:58.253Z,20.66
2016-06-29T09:14:58.828Z,20.58
2016-06-29T09:15:59.420Z,20.65
2016-06-29T09:16:58.843Z,20.63
2016-06-29T09:17:58.795Z,20.58
2016-06-29T09:18:58.199Z,20.51
2016-06-29T09:19:58.761Z,20.58
2016-06-29T09:20:58.154Z,20.74
2016-06-29T09:21:58.744Z,20.69
2016-06-29T09:22:58.736Z,20.72
2016-06-29T09:23:59.345Z,20.7
2016-06-29T09:24:59.295Z,20.65
2016-06-29T09:25:59.292Z,20.65
2016-06-29T09:26:58.686Z,20.59
2016-06-29T09:27:59.320Z,20.63
2016-06-29T09:28:59.247Z,20.75
2016-06-29T09:29:59.230Z,20.58
2016-06-29T09:30:58.022Z,20.66
2016-06-29T09:31:59.218Z,20.56
2016-06-29T09:32:58.600Z,20.69
2016-06-29T09:33:58.005Z,20.69
2016-06-29T09:34:58.568Z,20.74
2016-06-29T09:35:58.545Z,20.69
2016-06-29T09:36:59.191Z,20.72
2016-06-29T09:37:59.195Z,20.85
2016-06-29T09:38:59.118Z,20.88
2016-06-29T09:39:59.171Z,20.93
2016-06-29T09:40:57.895Z,20.95
2016-06-29T09:41:58.493Z,20.93
2016-06-29T09:42:58.473Z,21.03
2016-06-29T09:43:58.461Z,21.32
2016-06-29T09:44:58.444Z,21.48
2016-06-29T09:45:59.043Z,21.6
2016-06-29T09:46:59.046Z,21.69
2016-06-29T09:47:59.013Z,21.82
2016-06-29T09:48:57.807Z,22.1
2016-06-29T09:49:58.991Z,22.18
2016-06-29T09:50:58.994Z,22.25
2016-06-29T09:51:58.965Z,22.48
2016-06-29T09:52:58.963Z,22.62
2016-06-29T09:53:58.954Z,22.54
2016-06-29T09:54:57.743Z,22.55
2016-06-29T09:55:58.956Z,22.59
2016-06-29T09:56:58.585Z,22.66
2016-06-29T09:57:58.322Z,22.72
2016-06-29T09:58:59.335Z,22.68
2016-06-29T09:59:57.781Z,22.68
2016-06-29T10:00:58.312Z,22.59
2016-06-29T10:01:58.272Z,22.41
2016-06-29T10:02:58.862Z,22.38
2016-06-29T10:03:57.679Z,22.36
2016-06-29T10:04:58.854Z,22.43
2016-06-29T10:05:58.840Z,22.39
2016-06-29T10:06:58.822Z,22.57
2016-06-29T10:07:58.226Z,22.73
2016-06-29T10:08:58.446Z,22.8
2016-06-29T10:09:59.080Z,22.9
2016-06-29T10:10:58.785Z,22.94
2016-06-29T10:11:58.174Z,23.03
2016-06-29T10:12:58.781Z,23.21
2016-06-29T10:13:57.595Z,23.28
2016-06-29T10:14:58.163Z,23.32
2016-06-29T10:15:58.146Z,23.41
2016-06-29T10:16:58.896Z,23.44
2016-06-29T10:17:58.967Z,23.41
2016-06-29T10:18:58.932Z,23.27
2016-06-29T10:19:58.451Z,23.34
2016-06-29T10:20:58.873Z,23.21
2016-06-29T10:21:58.692Z,23.15
2016-06-29T10:22:58.089Z,23.32
2016-06-29T10:23:57.503Z,23.31
2016-06-29T10:24:58.180Z,23.43
2016-06-29T10:25:58.662Z,23.44
2016-06-29T10:26:58.049Z,23.48
2016-06-29T10:27:57.457Z,23.54
2016-06-29T10:28:58.028Z,23.44
2016-06-29T10:29:58.621Z,23.34
2016-06-29T10:30:58.022Z,23.24
2016-06-29T10:31:58.601Z,23.27
2016-06-29T10:32:58.628Z,23.54
2016-06-29T10:33:58.580Z,23.62
2016-06-29T10:34:58.571Z,23.77
2016-06-29T10:35:57.976Z,23.81
2016-06-29T10:36:57.378Z,23.87
2016-06-29T10:37:58.574Z,23.92
2016-06-29T10:38:58.541Z,23.8
2016-06-29T10:39:58.024Z,23.76
2016-06-29T10:40:57.361Z,23.73
2016-06-29T10:41:57.969Z,23.71
2016-06-29T10:42:58.505Z,23.8
2016-06-29T10:43:57.909Z,23.93
2016-06-29T10:44:57.896Z,23.99
2016-06-29T10:45:57.299Z,24.03
2016-06-29T10:46:57.878Z,24.16
2016-06-29T10:47:57.906Z,24.29
2016-06-29T10:48:58.478Z,24.45
2016-06-29T10:49:57.871Z,24.38
2016-06-29T10:50:57.261Z,24.45
2016-06-29T10:51:58.450Z,24.47
2016-06-29T10:52:57.245Z,24.53
2016-06-29T10:53:58.430Z,24.39
2016-06-29T10:54:57.832Z,24.36
2016-06-29T10:55:58.427Z,24.24
2016-06-29T10:56:58.442Z,24.17
2016-06-29T10:57:58.419Z,24.1
2016-06-29T10:58:57.201Z,24.05
2016-06-29T10:59:58.394Z,23.92
2016-06-29T11:00:57.192Z,24.01
2016-06-29T11:01:57.202Z,24.05
2016-06-29T11:02:57.798Z,24.14
2016-06-29T11:03:57.765Z,24.23
2016-06-29T11:04:57.789Z,24.3
2016-06-29T11:05:58.358Z,24.4
2016-06-29T11:06:57.723Z,24.45
2016-06-29T11:07:57.725Z,24.43
2016-06-29T11:08:58.327Z,24.66
2016-06-29T11:09:58.317Z,24.7
2016-06-29T11:10:57.723Z,24.93
2016-06-29T11:11:58.301Z,24.88
2016-06-29T11:12:57.711Z,25.01
2016-06-29T11:13:58.338Z,25.1
2016-06-29T11:14:58.263Z,25.04
2016-06-29T11:15:58.277Z,24.91
2016-06-29T11:16:58.259Z,24.73
2016-06-29T11:17:58.261Z,24.7
2016-06-29T11:18:58.272Z,24.73
2016-06-29T11:19:57.631Z,24.77
2016-06-29T11:20:58.218Z,24.8
2016-06-29T11:21:57.028Z,24.89
2016-06-29T11:22:57.048Z,25.01
2016-06-29T11:23:57.621Z,25.06
2016-06-29T11:24:57.610Z,25.14
2016-06-29T11:25:56.996Z,25.21
2016-06-29T11:26:57.585Z,25.16
2016-06-29T11:27:57.570Z,25.22
2016-06-29T11:28:57.579Z,25.08
2016-06-29T11:29:58.174Z,25.03
2016-06-29T11:30:57.565Z,24.93
2016-06-29T11:31:56.970Z,24.92
2016-06-29T11:32:56.954Z,24.98
2016-06-29T11:33:57.543Z,24.88
2016-06-29T11:34:58.140Z,24.93
2016-06-29T11:35:57.524Z,24.93
2016-06-29T11:36:58.113Z,24.96
2016-06-29T11:37:57.503Z,24.89
2016-06-29T11:38:58.100Z,24.8
2016-06-29T11:39:57.497Z,24.88
2016-06-29T11:40:58.091Z,24.95
2016-06-29T11:41:57.530Z,24.85
2016-06-29T11:42:58.079Z,24.77
2016-06-29T11:43:58.469Z,24.63
2016-06-29T11:44:58.269Z,24.6
2016-06-29T11:45:58.042Z,24.43
2016-06-29T11:46:59.198Z,24.51
2016-06-29T11:47:59.028Z,24.53
2016-06-29T11:48:58.442Z,24.53
2016-06-29T11:49:57.567Z,24.57
2016-06-29T11:50:58.414Z,24.61
2016-06-29T11:51:59.266Z,24.51
2016-06-29T11:52:57.496Z,24.76
2016-06-29T11:53:58.880Z,24.93
2016-06-29T11:54:57.734Z,24.92
2016-06-29T11:55:58.771Z,25.01
2016-06-29T11:56:58.641Z,24.93
2016-06-29T11:57:58.035Z,25.08
2016-06-29T11:58:58.476Z,25.21
2016-06-29T11:59:58.836Z,25.23
2016-06-29T12:00:58.031Z,25.29
2016-06-29T12:01:57.255Z,25.47
2016-06-29T12:02:56.927Z,25.46
2016-06-29T12:03:56.850Z,25.51
2016-06-29T12:04:57.614Z,25.6
2016-06-29T12:05:57.921Z,25.81
2016-06-29T12:06:58.786Z,25.84
2016-06-29T12:07:59.535Z,25.8
2016-06-29T12:08:59.012Z,25.9
2016-06-29T12:09:57.497Z,26.22
2016-06-29T12:10:58.252Z,26.45
2016-06-29T12:11:57.695Z,26.43
2016-06-29T12:12:57.947Z,26.48
2016-06-29T12:13:57.398Z,26.33
2016-06-29T12:14:57.400Z,26.22
2016-06-29T12:15:56.722Z,26.36
2016-06-29T12:16:57.930Z,26.41
2016-06-29T12:17:57.282Z,26.47
2016-06-29T12:18:57.258Z,26.6
2016-06-29T12:19:56.643Z,26.68
2016-06-29T12:20:58.071Z,26.77
2016-06-29T12:21:58.279Z,26.88
2016-06-29T12:22:58.274Z,26.85
2016-06-29T12:23:57.259Z,26.66
2016-06-29T12:24:58.178Z,26.62
2016-06-29T12:25:58.056Z,26.52
2016-06-29T12:26:57.597Z,26.28
2016-06-29T12:27:56.642Z,26.1
2016-06-29T12:28:57.226Z,25.87
2016-06-29T12:29:57.939Z,25.9
2016-06-29T12:30:58.180Z,26
2016-06-29T12:31:57.863Z,26.13
2016-06-29T12:32:57.047Z,26.29
2016-06-29T12:33:57.714Z,26.51
2016-06-29T12:34:58.255Z,26.59
2016-06-29T12:35:57.938Z,26.59
2016-06-29T12:36:58.161Z,26.68
2016-06-29T12:37:56.566Z,26.55
2016-06-29T12:38:57.313Z,26.59
2016-06-29T12:39:57.794Z,26.55
2016-06-29T12:40:57.145Z,26.41
2016-06-29T12:41:57.872Z,26.43
2016-06-29T12:42:57.080Z,26.51
2016-06-29T12:43:57.073Z,26.53
2016-06-29T12:44:56.491Z,26.65
2016-06-29T12:45:57.068Z,26.68
2016-06-29T12:46:57.061Z,26.59
2016-06-29T12:47:57.722Z,26.7
2016-06-29T12:48:57.045Z,26.75
2016-06-29T12:49:56.440Z,26.65
2016-06-29T12:50:57.515Z,26.73
2016-06-29T12:51:57.814Z,26.93
2016-06-29T12:52:57.062Z,27.03
2016-06-29T12:53:57.608Z,27.11
2016-06-29T12:54:57.020Z,27.36